Flight Track Log - Related Links

Times and Time Zones

All times are in EDT time to prevent confusion due to time zone crossing. See the CTL309 flight status page for this flight to view local times or setup timezone preferences in your user account.

Time Position Orientation Groundspeed Altitude Reporting Facility
EDT Latitude Longitude Course Direction KTS MPH feet Rate Location/Type
Thu 10:23:28 PM 41.5275 -81.6703 32° Northeast 119 137 1,200  Level Cleveland Center
Thu 10:24:34 PM 41.5569 -81.6458 32° Northeast 120 138 2,100 1,190 Climbing Cleveland Center
Thu 10:25:29 PM 41.5819 -81.6297 26° Northeast 92 106 3,600 1,431 Climbing Cleveland Center
Thu 10:26:23 PM 41.5697 -81.6100 130° Southeast 138 159 4,700 991 Climbing Cleveland Center
Thu 10:27:24 PM 41.5303 -81.6011 170° South 146 168 5,500 639 Climbing Cleveland Center
Thu 10:28:25 PM 41.4864 -81.5892 168° South 161 185 6,000 283 Climbing Cleveland Center
Thu 10:29:31 PM 41.4403 -81.6356 217° Southwest 191 220 6,100  Climbing Cleveland Center
Thu 10:30:32 PM 41.4022 -81.6822 223° Southwest 194 223 6,000 -49 Descending Cleveland Center
Thu 10:31:33 PM 41.3603 -81.7256 218° Southwest 188 216 6,000 52 Level Cleveland Center
Thu 10:32:27 PM 41.3264 -81.7639 220° Southwest 187 215 6,100  Climbing Cleveland Center
Thu 10:33:34 PM 41.2800 -81.8156 220° Southwest 196 226 6,000 -47 Descending Cleveland Center
Thu 10:34:34 PM 41.2378 -81.8644 221° Southwest 191 220 6,000  Level Cleveland Center
Thu 10:35:35 PM 41.1956 -81.9078 218° Southwest 194 223 6,000  Level Cleveland Center
Thu 10:37:36 PM 41.1069 -81.9969 217° Southwest 196 226 6,000  Level Cleveland Center
Thu 10:39:41 PM 41.0203 -82.0797 216° Southwest 197 227 6,000  Level Indianapolis Center
Thu 10:40:43 PM 40.9764 -82.1250 218° Southwest 198 228 6,000  Level Indianapolis Center
Thu 10:41:44 PM 40.9361 -82.1744 223° Southwest 197 227 6,000  Level Indianapolis Center
Thu 10:42:45 PM 40.8936 -82.2208 220° Southwest 196 226 6,000  Level Indianapolis Center
Thu 10:43:47 PM 40.8500 -82.2661 218° Southwest 197 227 6,000  Level Indianapolis Center
Thu 10:44:48 PM 40.8072 -82.3103 218° Southwest 194 223 6,000 -49 Level Indianapolis Center
Thu 10:45:49 PM 40.7656 -82.3547 219° Southwest 192 221 5,900 -49 Descending Indianapolis Center
Thu 10:46:51 PM 40.7247 -82.3994 220° Southwest 190 219 5,900  Level Indianapolis Center
Thu 10:47:52 PM 40.6836 -82.4436 219° Southwest 190 219 5,900  Level Indianapolis Center
Thu 10:48:53 PM 40.6369 -82.4981 222° Southwest 190 219 5,900  Level Indianapolis Center
Thu 10:49:55 PM 40.5944 -82.5406 217° Southwest 190 219 5,900  Level Indianapolis Center
Thu 10:50:56 PM 40.5533 -82.5836 219° Southwest 188 216 5,900 49 Level Indianapolis Center
Thu 10:51:57 PM 40.5142 -82.6292 221° Southwest 187 215 6,000  Climbing Indianapolis Center
Thu 10:52:59 PM 40.4747 -82.6753 222° Southwest 188 216 5,900 -63 Descending Indianapolis Center
Thu 10:53:33 PM 40.4472 -82.7036 218° Southwest 190 219 5,900 -197 Level Indianapolis Center
Thu 10:54:00 PM 40.4314 -82.7169 213° Southwest 191 220 5,700 -492 Descending Indianapolis Center
Thu 10:54:34 PM 40.4025 -82.7481 219° Southwest 200 230 5,400 -295 Descending Indianapolis Center
Thu 10:55:01 PM 40.3847 -82.7597 207° Southwest 200 230 5,400 -109 Level Indianapolis Center
Thu 10:55:29 PM 40.3603 -82.7869 220° Southwest 202 232 5,300 -484 Descending Indianapolis Center
Thu 10:56:03 PM 40.3392 -82.8036 211° Southwest 201 231 4,900 -500 Descending Indianapolis Center
Thu 10:56:29 PM 40.3136 -82.8283 216° Southwest 204 235 4,800 -393 Descending Indianapolis Center
Thu 10:57:04 PM 40.2931 -82.8442 210° Southwest 205 236 4,500 -545 Descending Indianapolis Center
Thu 10:57:24 PM 40.2711 -82.8672 219° Southwest 207 238 4,300 -787 Descending Indianapolis Center
Thu 10:58:05 PM 40.2461 -82.8897 214° Southwest 207 238 3,700 -818 Descending Indianapolis Center
Thu 10:58:30 PM 40.2197 -82.9158 217° Southwest 211 243 3,400 -774 Descending Indianapolis Center
Thu 10:59:07 PM 40.1903 -82.9447 217° Southwest 211 243 2,900 -811 Descending Indianapolis Center
Thu 11:01:00 PM 40.1294 -83.0158 222° Southwest  Level FlightAware Approximate
Thu 11:08:00 PM 40.0798 -83.0732 201° Southwest  Level Estimated
Thu 11:09:00 PM 40.0798 -83.0732 201° Southwest  Level Estimated

Login

Don't have an account? Register now (free) for customized features, flight alerts, and more!